aviador You're here:

KBIL Decoded Metar

BILLINGS in MT, USA
Report Time2017-05-28 05:53:00
UTC Time2017-05-28 06:46:02
Flight Rules vfr VFR
Wind270° at 09 kt
W.Decomp.*RWY 25: 9.0 kt HW 0.9 kt RCW
RWY 28: 8.2 kt HW 3.7 kt LCW
W.Rank270° ranks 19
Current wind is below 270° avg. (12.5)
Visibility9999 m
Phenomena:N/A
Clouds:Scattered 110 Hf
Expected CloudBase > 5,200 ft AGL from Temp-Dew spread
CeilingNone
Temp16°C (ISA +8)
Dew Point03°C (42% RH)
AAT11.3°C
QNH1020 hPa
Density Alt4,403 ft
Elevation3,579 ft
Report Wrong Elevation
Raw Report
METAR KBIL 280553Z 27009KT 10SM SCT110 16/03 A3012 RMK AO2 SLP179 T01560028
10239 20156 51006=

Extra information for KBIL:More info

Metar Taf Metar & Taf Last 4 Metars F.Rules Stats Wind Profile Meteogram Temp Stats Airport Information Weather charts Add Link Nearby VenuesMetar ALERT Operation Metar Decoded Social comments

AIRNAV info for KBIL